Time;durP1;ratioP1;P1;durP2;ratioP2;P2;SDS_P1;SDS_P2;PMS_P1;PMS_P2;Temp;Humidity;BMP_temperature;BMP_pressure;BME280_temperature;BME280_humidity;BME280_pressure;Samples;Min_cycle;Max_cycle;Signal;HPM_P1;HPM_P2
2023/02/24 00:01:43;;;;;;;;;;;;;;;8.62;nan;100192.13;4996889;28;20472;-84
2023/02/24 00:04:32;;;;;;;;;;;;;;;8.60;nan;100191.44;4985449;28;19925;-85
2023/02/24 00:06:59;;;;;;;;;;;;;;;8.62;nan;100184.22;4996171;28;19964;-85
2023/02/24 00:12:36;;;;;;;;;;;;;;;8.55;nan;100180.50;4991812;28;20012;-85
2023/02/24 00:15:01;;;;;;;;;;;;;;;8.52;nan;100181.63;5012435;28;19944;-85
2023/02/24 00:17:29;;;;;;;;;;;;;;;8.47;nan;100182.06;5001158;28;19924;-85
2023/02/24 00:19:58;;;;;;;;;;;;;;;8.50;nan;100176.50;5017861;28;19913;-85
2023/02/24 00:22:25;;;;;;;;;;;;;;;8.49;nan;100181.94;5000484;28;19917;-85
2023/02/24 00:24:53;;;;;;;;;;;;;;;8.49;nan;100176.66;4992812;28;20355;-85
2023/02/24 00:27:18;;;;;;;;;;;;;;;8.47;nan;100170.72;5003153;28;19924;-85
2023/02/24 00:30:04;;;;;;;;;;;;;;;8.46;nan;100169.88;4995026;28;19918;-84
2023/02/24 00:32:34;;;;;;;;;;;;;;;8.45;nan;100159.47;4985261;28;19936;-85
2023/02/24 00:35:02;;;;;;;;;;;;;;;8.42;nan;100162.41;4991626;28;19917;-85
2023/02/24 00:37:28;;;;;;;;;;;;;;;8.42;nan;100167.69;5009979;28;19936;-85
2023/02/24 00:40:03;;;;;;;;;;;;;;;8.42;nan;100163.25;5000838;28;19925;-85
2023/02/24 00:42:44;;;;;;;;;;;;;;;8.42;nan;100155.34;4991879;28;19980;-85
2023/02/24 00:45:19;;;;;;;;;;;;;;;8.42;nan;100165.06;4991184;28;19980;-85
2023/02/24 00:47:47;;;;;;;;;;;;;;;8.39;nan;100155.63;5004544;28;19952;-85
2023/02/24 00:50:13;;;;;;;;;;;;;;;8.39;nan;100154.75;4984509;28;19936;-85
2023/02/24 00:52:42;;;;;;;;;;;;;;;8.36;nan;100153.25;4988410;28;19922;-85
2023/02/24 00:55:13;;;;;;;;;;;;;;;8.35;nan;100150.78;4994051;28;20378;-84
2023/02/24 00:57:44;;;;;;;;;;;;;;;8.34;nan;100147.28;4985222;28;19918;-84
2023/02/24 01:00:18;;;;;;;;;;;;;;;8.27;nan;100144.44;4992852;28;19917;-84
2023/02/24 01:02:52;;;;;;;;;;;;;;;8.31;nan;100147.59;4977006;28;19979;-84
2023/02/24 01:05:29;;;;;;;;;;;;;;;8.28;nan;100130.28;4994296;28;19918;-84
2023/02/24 01:07:58;;;;;;;;;;;;;;;8.28;nan;100124.19;4992333;28;19940;-84
2023/02/24 01:13:17;;;;;;;;;;;;;;;8.24;nan;100120.19;4982994;28;19977;-84
2023/02/24 01:15:48;;;;;;;;;;;;;;;8.20;nan;100124.06;4997197;28;20053;-84
2023/02/24 01:18:30;;;;;;;;;;;;;;;8.18;nan;100121.59;4989414;28;19917;-84
2023/02/24 01:21:34;;;;;;;;;;;;;;;;;;;;;
2023/02/24 01:24:25;;;;;;;;;;;;;;;8.12;nan;100118.72;4990567;28;20008;-84
2023/02/24 01:27:03;;;;;;;;;;;;;;;8.04;nan;100116.81;4943835;28;19918;-84
2023/02/24 01:29:38;;;;;;;;;;;;;;;8.02;nan;100113.50;4996137;28;19921;-85
2023/02/24 01:34:56;;;;;;;;;;;;;;;8.01;nan;100110.03;5008027;28;19933;-85
2023/02/24 01:37:33;;;;;;;;;;;;;;;7.98;nan;100106.84;4996123;28;19984;-85
2023/02/24 01:40:10;;;;;;;;;;;;;;;7.94;nan;100108.97;5000130;28;19921;-85
2023/02/24 01:42:46;;;;;;;;;;;;;;;7.95;nan;100112.41;4977656;28;20020;-85
2023/02/24 01:45:35;;;;;;;;;;;;;;;7.92;nan;100107.47;4981108;28;20453;-85
2023/02/24 01:48:05;;;;;;;;;;;;;;;7.91;nan;100101.34;4981827;28;20389;-85
2023/02/24 01:50:45;;;;;;;;;;;;;;;;;;;;;
2023/02/24 01:53:17;;;;;;;;;;;;;;;7.85;nan;100099.31;4981717;28;19922;-85
2023/02/24 01:55:53;;;;;;;;;;;;;;;7.83;nan;100099.44;4997122;28;19925;-85
2023/02/24 01:58:24;;;;;;;;;;;;;;;7.82;nan;100102.22;4981126;28;19996;-85
2023/02/24 02:00:52;;;;;;;;;;;;;;;7.83;nan;100096.81;5001529;28;19986;-85
2023/02/24 02:03:29;;;;;;;;;;;;;;;7.86;nan;100104.44;4989060;28;19917;-85
2023/02/24 02:06:03;;;;;;;;;;;;;;;7.85;nan;100097.50;5001468;28;19975;-85
2023/02/24 02:08:48;;;;;;;;;;;;;;;;;;;;;
2023/02/24 02:11:26;;;;;;;;;;;;;;;7.88;nan;100094.56;5014953;28;20012;-85
2023/02/24 02:14:15;;;;;;;;;;;;;;;7.86;nan;100091.28;4992299;28;19921;-85
2023/02/24 02:17:03;;;;;;;;;;;;;;;7.85;nan;100088.78;4994638;28;19926;-85
2023/02/24 02:19:42;;;;;;;;;;;;;;;7.83;nan;100078.38;5001434;28;19960;-85
2023/02/24 02:22:34;;;;;;;;;;;;;;;7.78;nan;100077.16;4997839;28;20181;-85
2023/02/24 02:25:24;;;;;;;;;;;;;;;7.78;nan;100077.16;5008873;28;19939;-85
2023/02/24 02:28:30;;;;;;;;;;;;;;;;;;;;;
2023/02/24 02:31:07;;;;;;;;;;;;;;;7.78;nan;100072.72;4934825;28;20401;-85
2023/02/24 02:33:59;;;;;;;;;;;;;;;7.82;nan;100058.31;4950177;28;19945;-85
2023/02/24 02:36:38;;;;;;;;;;;;;;;7.83;nan;100064.38;4993830;28;19918;-85
2023/02/24 02:39:30;;;;;;;;;;;;;;;7.84;nan;100058.13;5001902;28;19924;-85
2023/02/24 02:42:13;;;;;;;;;;;;;;;7.87;nan;100071.84;5015551;28;19913;-85
2023/02/24 02:45:04;;;;;;;;;;;;;;;7.89;nan;100063.81;5019940;28;19918;-84
2023/02/24 02:47:43;;;;;;;;;;;;;;;7.82;nan;100055.69;4990329;28;19945;-84
2023/02/24 02:50:20;;;;;;;;;;;;;;;7.83;nan;100065.22;4987814;28;19918;-85
2023/02/24 02:52:57;;;;;;;;;;;;;;;7.85;nan;100058.00;4989484;28;19925;-85
2023/02/24 02:56:01;;;;;;;;;;;;;;;7.87;nan;100063.13;4982563;28;20399;-84
2023/02/24 02:58:53;;;;;;;;;;;;;;;7.90;nan;100060.19;4922928;29;19922;-84
2023/02/24 03:01:35;;;;;;;;;;;;;;;7.92;nan;100060.06;4924623;29;19915;-84
2023/02/24 03:04:45;;;;;;;;;;;;;;;;;;;;;
2023/02/24 03:07:28;;;;;;;;;;;;;;;7.94;nan;100052.84;4945381;28;20812;-85
2023/02/24 03:10:08;;;;;;;;;;;;;;;;;;;;;
2023/02/24 03:12:41;;;;;;;;;;;;;;;7.88;nan;100056.88;5002307;28;20481;-85
2023/02/24 03:18:44;;;;;;;;;;;;;;;7.85;nan;100042.22;4978849;28;20139;-84
2023/02/24 03:21:21;;;;;;;;;;;;;;;7.87;nan;100040.25;5004305;28;19985;-85
2023/02/24 03:23:58;;;;;;;;;;;;;;;7.86;nan;100035.13;4992363;28;19971;-85
2023/02/24 03:26:50;;;;;;;;;;;;;;;7.85;nan;100036.13;4985740;28;20276;-85
2023/02/24 03:33:05;;;;;;;;;;;;;;;7.80;nan;100027.84;5015342;28;19936;-85
2023/02/24 03:36:19;;;;;;;;;;;;;;;7.73;nan;100032.03;5001773;28;20363;-86
2023/02/24 03:42:05;;;;;;;;;;;;;;;7.71;nan;100032.16;4993058;28;19917;-86
2023/02/24 03:44:59;;;;;;;;;;;;;;;7.71;nan;100024.28;4989900;28;19917;-87
2023/02/24 03:47:59;;;;;;;;;;;;;;;7.71;nan;100021.63;5001761;28;19971;-87
2023/02/24 03:50:31;;;;;;;;;;;;;;;7.72;nan;100017.19;4981781;28;19914;-86
2023/02/24 03:53:22;;;;;;;;;;;;;;;7.72;nan;100018.03;4970391;28;19929;-87
2023/02/24 03:56:14;;;;;;;;;;;;;;;7.75;nan;100016.94;5009816;28;19975;-88
2023/02/24 03:59:15;;;;;;;;;;;;;;;7.74;nan;100010.00;4978114;28;19918;-87
2023/02/24 04:02:02;;;;;;;;;;;;;;;7.74;nan;100008.19;4990584;28;19917;-88
2023/02/24 04:05:11;;;;;;;;;;;;;;;7.71;nan;100008.47;4983684;28;19964;-87
2023/02/24 04:08:11;;;;;;;;;;;;;;;7.68;nan;100008.78;4982253;28;19932;-87
2023/02/24 04:10:56;;;;;;;;;;;;;;;7.63;nan;100003.13;5001263;28;20321;-86
2023/02/24 04:13:27;;;;;;;;;;;;;;;7.60;nan;100003.41;4987342;28;19925;-87
2023/02/24 04:16:15;;;;;;;;;;;;;;;7.55;nan;100003.84;5004086;28;19913;-88
2023/02/24 04:21:41;;;;;;;;;;;;;;;7.47;nan;100005.56;4975439;28;20337;-87
2023/02/24 04:24:19;;;;;;;;;;;;;;;7.48;nan;100001.94;5004418;28;20028;-86
2023/02/24 04:26:48;;;;;;;;;;;;;;;7.47;nan;99993.22;4980268;28;20003;-86
2023/02/24 04:29:22;;;;;;;;;;;;;;;7.50;nan;100000.00;5001464;28;19925;-86
2023/02/24 04:32:09;;;;;;;;;;;;;;;7.52;nan;100005.94;4987620;28;19956;-87
2023/02/24 04:35:03;;;;;;;;;;;;;;;7.54;nan;99996.09;4975376;28;20525;-86
2023/02/24 04:38:00;;;;;;;;;;;;;;;7.51;nan;99988.47;4981966;28;20287;-86
2023/02/24 04:40:20;;;;;;;;;;;;;;;7.50;nan;99985.03;4995006;28;19920;-87
2023/02/24 04:42:53;;;;;;;;;;;;;;;7.49;nan;99972.03;4970057;28;19913;-86
2023/02/24 04:45:31;;;;;;;;;;;;;;;7.49;nan;99979.94;4971746;28;19914;-87
2023/02/24 04:48:12;;;;;;;;;;;;;;;;;;;;;
2023/02/24 04:50:54;;;;;;;;;;;;;;;7.50;nan;99974.50;5006114;28;20915;-85
2023/02/24 04:53:47;;;;;;;;;;;;;;;7.50;nan;99971.06;5017233;28;19961;-85
2023/02/24 04:56:17;;;;;;;;;;;;;;;7.50;nan;99963.16;5008279;28;20408;-85
2023/02/24 04:58:54;;;;;;;;;;;;;;;7.49;nan;99962.34;4990051;28;20022;-85
2023/02/24 05:01:27;;;;;;;;;;;;;;;7.50;nan;99950.00;4987363;28;19914;-85
2023/02/24 05:03:58;;;;;;;;;;;;;;;7.49;nan;99951.81;4994065;28;19926;-85
2023/02/24 05:09:38;;;;;;;;;;;;;;;7.47;nan;99931.91;4981397;28;20357;-86
2023/02/24 05:12:16;;;;;;;;;;;;;;;7.45;nan;99940.75;5012785;28;19921;-87
2023/02/24 05:17:47;;;;;;;;;;;;;;;7.45;nan;99935.47;4941111;28;19919;-87
2023/02/24 05:23:01;;;;;;;;;;;;;;;7.41;nan;99934.13;4985608;28;20444;-86
2023/02/24 05:25:36;;;;;;;;;;;;;;;7.42;nan;99927.06;5036929;28;19913;-85
2023/02/24 05:28:14;;;;;;;;;;;;;;;;;;;;;
2023/02/24 05:30:49;;;;;;;;;;;;;;;7.37;nan;99908.28;5021669;28;20382;-85
2023/02/24 05:33:21;;;;;;;;;;;;;;;7.35;nan;99907.59;5015430;28;19921;-84
2023/02/24 05:39:13;;;;;;;;;;;;;;;7.33;nan;99894.56;5012633;28;19975;-85
2023/02/24 05:42:05;;;;;;;;;;;;;;;7.30;nan;99896.69;4989092;28;20297;-85
2023/02/24 05:45:10;;;;;;;;;;;;;;;7.29;nan;99893.19;4999455;28;19917;-85
2023/02/24 05:47:49;;;;;;;;;;;;;;;7.32;nan;99890.31;4977523;28;19924;-85
2023/02/24 05:50:25;;;;;;;;;;;;;;;7.33;nan;99893.75;4989447;28;19982;-85
2023/02/24 05:52:54;;;;;;;;;;;;;;;7.34;nan;99895.41;4984923;28;20058;-85
2023/02/24 05:55:23;;;;;;;;;;;;;;;7.33;nan;99894.56;4991263;28;20345;-85
2023/02/24 05:57:58;;;;;;;;;;;;;;;7.34;nan;99887.50;4989795;28;19975;-85
2023/02/24 06:00:30;;;;;;;;;;;;;;;7.31;nan;99886.00;4980421;28;19926;-85
2023/02/24 06:05:56;;;;;;;;;;;;;;;7.29;nan;99874.78;4993632;28;19925;-85
2023/02/24 06:08:25;;;;;;;;;;;;;;;7.22;nan;99874.56;4995282;28;19925;-85
2023/02/24 06:10:55;;;;;;;;;;;;;;;7.18;nan;99880.25;5015315;28;19913;-85
2023/02/24 06:13:46;;;;;;;;;;;;;;;7.14;nan;99884.97;4997742;28;19921;-85
2023/02/24 06:16:12;;;;;;;;;;;;;;;7.12;nan;99891.34;4996260;28;19918;-85
2023/02/24 06:18:46;;;;;;;;;;;;;;;7.12;nan;99883.47;4990023;28;19921;-85
2023/02/24 06:21:17;;;;;;;;;;;;;;;7.12;nan;99876.41;4991883;28;19948;-85
2023/02/24 06:24:08;;;;;;;;;;;;;;;7.11;nan;99877.38;5004444;28;19917;-85
2023/02/24 06:26:36;;;;;;;;;;;;;;;7.07;nan;99883.91;4990395;28;19952;-85
2023/02/24 06:29:04;;;;;;;;;;;;;;;7.06;nan;99884.06;4992693;28;19921;-85
2023/02/24 06:31:31;;;;;;;;;;;;;;;7.05;nan;99883.22;4992187;28;19918;-85
2023/02/24 06:34:03;;;;;;;;;;;;;;;7.03;nan;99874.63;5002423;28;19968;-85
2023/02/24 06:36:34;;;;;;;;;;;;;;;7.07;nan;99880.44;5000979;28;19994;-86
2023/02/24 06:38:59;;;;;;;;;;;;;;;7.11;nan;99882.66;4986691;28;19913;-87
2023/02/24 06:41:31;;;;;;;;;;;;;;;7.16;nan;99879.59;4993762;28;19914;-86
2023/02/24 06:44:08;;;;;;;;;;;;;;;7.21;nan;99886.03;4998090;28;19964;-87
2023/02/24 06:46:36;;;;;;;;;;;;;;;7.26;nan;99877.72;4983280;28;19918;-86
2023/02/24 06:49:05;;;;;;;;;;;;;;;7.28;nan;99885.47;4985410;28;19909;-87
2023/02/24 06:51:34;;;;;;;;;;;;;;;7.31;nan;99882.53;5001056;28;19964;-87
2023/02/24 06:54:02;;;;;;;;;;;;;;;7.31;nan;99886.00;4997363;28;19943;-87
2023/02/24 06:56:37;;;;;;;;;;;;;;;7.35;nan;99886.53;4990421;28;19963;-86
2023/02/24 06:59:20;;;;;;;;;;;;;;;7.37;nan;99885.41;5009496;28;19921;-86
2023/02/24 07:01:46;;;;;;;;;;;;;;;7.43;nan;99881.38;4999631;28;20370;-87
2023/02/24 07:06:46;;;;;;;;;;;;;;;7.51;nan;99885.88;4998571;28;19917;-87
2023/02/24 07:09:20;;;;;;;;;;;;;;;7.55;nan;99889.88;4980799;28;20548;-87
2023/02/24 07:11:55;;;;;;;;;;;;;;;7.58;nan;99887.78;4986389;28;20359;-87
2023/02/24 07:14:50;;;;;;;;;;;;;;;7.61;nan;99886.66;4966720;28;20168;-87
2023/02/24 07:17:45;;;;;;;;;;;;;;;7.64;nan;99886.38;4978477;28;20468;-87
2023/02/24 07:20:23;;;;;;;;;;;;;;;7.71;nan;99883.97;4989957;28;19917;-88
2023/02/24 07:23:01;;;;;;;;;;;;;;;7.73;nan;99879.41;4989578;28;20019;-87
2023/02/24 07:25:57;;;;;;;;;;;;;;;7.72;nan;99877.72;4984384;28;19918;-88
2023/02/24 07:28:35;;;;;;;;;;;;;;;;;;;;;
2023/02/24 07:31:36;;;;;;;;;;;;;;;7.82;nan;99881.13;4986962;28;19918;-85
2023/02/24 07:34:23;;;;;;;;;;;;;;;7.89;nan;99882.19;4991204;28;20020;-86
2023/02/24 07:37:35;;;;;;;;;;;;;;;7.97;nan;99876.16;4984349;28;19964;-85
2023/02/24 07:40:35;;;;;;;;;;;;;;;8.03;nan;99872.91;4983361;28;19918;-86
2023/02/24 07:43:17;;;;;;;;;;;;;;;8.09;nan;99870.50;4997438;28;19917;-85
2023/02/24 07:46:26;;;;;;;;;;;;;;;8.17;nan;99867.09;4995069;28;19961;-85
2023/02/24 07:49:37;;;;;;;;;;;;;;;;;;;;;
2023/02/24 07:52:34;;;;;;;;;;;;;;;8.24;nan;99877.88;4929232;29;19928;-87
2023/02/24 07:58:39;;;;;;;;;;;;;;;;;;;;;
2023/02/24 08:07:39;;;;;;;;;;;;;;;8.46;nan;99855.50;4951150;28;20288;-85
2023/02/24 08:13:48;;;;;;;;;;;;;;;8.74;nan;99853.53;4879280;29;19931;-86
2023/02/24 08:23:22;;;;;;;;;;;;;;;;;;;;;
2023/02/24 08:26:26;;;;;;;;;;;;;;;;;;;;;
2023/02/24 08:29:13;;;;;;;;;;;;;;;9.10;nan;99840.19;4944053;28;21560;-86
2023/02/24 08:41:43;;;;;;;;;;;;;;;9.54;nan;99817.06;4924713;29;19966;-86
2023/02/24 08:44:09;;;;;;;;;;;;;;;9.62;nan;99816.25;4921265;29;19919;-85
2023/02/24 08:46:42;;;;;;;;;;;;;;;9.64;nan;99816.09;4927787;29;19965;-86
2023/02/24 08:49:09;;;;;;;;;;;;;;;9.51;nan;99819.19;4928713;28;19993;-86
2023/02/24 08:51:51;;;;;;;;;;;;;;;9.52;nan;99821.66;4925821;29;19919;-87
2023/02/24 08:54:46;;;;;;;;;;;;;;;9.55;nan;99823.16;4975765;28;19922;-87
2023/02/24 08:57:07;;;;;;;;;;;;;;;9.75;nan;99811.31;4972091;28;19989;-86
2023/02/24 08:59:36;;;;;;;;;;;;;;;10.06;nan;99815.09;4985002;28;19921;-87
2023/02/24 09:02:26;;;;;;;;;;;;;;;10.39;nan;99808.84;4985700;28;19971;-87
2023/02/24 09:05:07;;;;;;;;;;;;;;;10.45;nan;99799.41;4971046;28;19948;-87
2023/02/24 09:07:40;;;;;;;;;;;;;;;10.71;nan;99807.09;4985679;28;20603;-86
2023/02/24 09:12:41;;;;;;;;;;;;;;;11.15;nan;99801.28;5004966;22;20012;-87
2023/02/24 09:15:16;;;;;;;;;;;;;;;11.38;nan;99801.31;4993215;28;19918;-86
2023/02/24 09:18:00;;;;;;;;;;;;;;;11.25;nan;99796.63;5008293;28;20007;-86
2023/02/24 09:23:07;;;;;;;;;;;;;;;10.60;nan;99784.47;5009130;28;19929;-87
2023/02/24 09:25:44;;;;;;;;;;;;;;;10.56;nan;99777.91;4991560;28;19924;-86
2023/02/24 09:28:19;;;;;;;;;;;;;;;10.63;nan;99778.88;4978147;28;19947;-86
2023/02/24 09:30:54;;;;;;;;;;;;;;;10.53;nan;99772.13;4974764;28;19917;-86
2023/02/24 09:33:37;;;;;;;;;;;;;;;10.73;nan;99778.66;4989684;28;20454;-86
2023/02/24 09:36:18;;;;;;;;;;;;;;;10.69;nan;99769.41;5023094;28;19972;-87
2023/02/24 09:41:52;;;;;;;;;;;;;;;11.14;nan;99764.41;5011048;28;19922;-86
2023/02/24 09:44:19;;;;;;;;;;;;;;;10.99;nan;99761.69;5013816;28;19971;-87
2023/02/24 09:47:07;;;;;;;;;;;;;;;11.07;nan;99759.00;4995964;28;19944;-87
2023/02/24 09:49:38;;;;;;;;;;;;;;;11.23;nan;99750.97;4992309;28;20364;-86
2023/02/24 09:52:07;;;;;;;;;;;;;;;11.31;nan;99750.09;5009814;28;19917;-87
2023/02/24 09:54:34;;;;;;;;;;;;;;;11.42;nan;99738.28;5009757;28;19975;-87
2023/02/24 09:57:07;;;;;;;;;;;;;;;11.52;nan;99736.22;4978050;28;19924;-87
2023/02/24 09:59:59;;;;;;;;;;;;;;;11.63;nan;99742.91;4986026;28;19924;-86
2023/02/24 10:02:58;;;;;;;;;;;;;;;11.82;nan;99730.97;5003159;28;20020;-87
2023/02/24 10:05:26;;;;;;;;;;;;;;;11.76;nan;99743.13;5007837;28;19925;-86
2023/02/24 10:07:55;;;;;;;;;;;;;;;11.79;nan;99737.47;4990485;28;19953;-87
2023/02/24 10:10:27;;;;;;;;;;;;;;;11.90;nan;99738.91;5000491;28;19921;-87
2023/02/24 10:13:12;;;;;;;;;;;;;;;11.72;nan;99731.25;4987879;28;19925;-87
2023/02/24 10:18:26;;;;;;;;;;;;;;;11.92;nan;99721.00;5009497;28;19919;-87
2023/02/24 10:20:52;;;;;;;;;;;;;;;12.14;nan;99713.19;4985627;28;19940;-87
2023/02/24 10:23:36;;;;;;;;;;;;;;;12.26;nan;99714.38;4992495;28;19949;-87
2023/02/24 10:26:04;;;;;;;;;;;;;;;12.20;nan;99713.25;4990914;28;19917;-87
2023/02/24 10:28:50;;;;;;;;;;;;;;;12.04;nan;99706.31;4988210;28;20342;-86
2023/02/24 10:31:28;;;;;;;;;;;;;;;11.86;nan;99717.22;4981146;28;20366;-87
2023/02/24 10:34:10;;;;;;;;;;;;;;;11.81;nan;99706.31;4983830;28;19922;-87
2023/02/24 10:36:36;;;;;;;;;;;;;;;11.74;nan;99708.06;4987597;28;19932;-87
2023/02/24 10:39:19;;;;;;;;;;;;;;;11.74;nan;99700.09;4986166;28;19974;-88
2023/02/24 10:41:47;;;;;;;;;;;;;;;11.81;nan;99695.72;5008209;28;19917;-87
2023/02/24 10:44:18;;;;;;;;;;;;;;;11.59;nan;99689.47;4988512;28;20145;-87
2023/02/24 10:46:44;;;;;;;;;;;;;;;11.63;nan;99685.47;4990036;28;20306;-86
2023/02/24 10:49:15;;;;;;;;;;;;;;;11.71;nan;99686.41;4986194;28;19923;-87
2023/02/24 10:51:41;;;;;;;;;;;;;;;11.69;nan;99679.44;4987749;28;19962;-86
2023/02/24 10:57:35;;;;;;;;;;;;;;;11.75;nan;99677.94;4980177;28;19924;-87
2023/02/24 11:00:29;;;;;;;;;;;;;;;11.72;nan;99667.69;4991279;28;20406;-87
2023/02/24 11:03:05;;;;;;;;;;;;;;;11.76;nan;99653.06;4985696;28;20375;-86
2023/02/24 11:06:05;;;;;;;;;;;;;;;11.94;nan;99659.88;4989523;28;19917;-87
2023/02/24 11:08:53;;;;;;;;;;;;;;;12.04;nan;99652.50;5006653;28;19917;-87
2023/02/24 11:11:29;;;;;;;;;;;;;;;12.21;nan;99642.53;4987902;28;19935;-87
2023/02/24 11:19:44;;;;;;;;;;;;;;;12.42;nan;99621.38;5010224;28;19976;-87
2023/02/24 11:22:14;;;;;;;;;;;;;;;12.33;nan;99625.16;4989638;28;19918;-87
2023/02/24 11:24:39;;;;;;;;;;;;;;;12.24;nan;99610.34;4994916;28;20264;-86
2023/02/24 11:27:05;;;;;;;;;;;;;;;12.16;nan;99607.81;4988470;28;19924;-86
2023/02/24 11:29:40;;;;;;;;;;;;;;;12.09;nan;99603.25;4992804;28;19922;-86
2023/02/24 11:32:25;;;;;;;;;;;;;;;11.91;nan;99600.13;5008827;28;19921;-87
2023/02/24 11:35:12;;;;;;;;;;;;;;;11.71;nan;99597.19;4997357;28;19922;-86
2023/02/24 11:37:44;;;;;;;;;;;;;;;11.89;nan;99587.09;5007690;28;19917;-86
2023/02/24 11:40:09;;;;;;;;;;;;;;;12.00;nan;99588.44;4991224;28;19917;-86
2023/02/24 11:42:44;;;;;;;;;;;;;;;12.06;nan;99585.06;4991142;28;19925;-87
2023/02/24 11:45:13;;;;;;;;;;;;;;;12.10;nan;99570.41;4992565;28;19918;-86
2023/02/24 11:47:42;;;;;;;;;;;;;;;12.03;nan;99574.81;4991486;28;20008;-87
2023/02/24 11:50:25;;;;;;;;;;;;;;;11.90;nan;99566.72;4990051;28;19929;-87
2023/02/24 11:52:52;;;;;;;;;;;;;;;11.73;nan;99557.25;5008061;28;20007;-87
2023/02/24 11:55:31;;;;;;;;;;;;;;;11.61;nan;99555.09;4995043;28;19925;-87
2023/02/24 11:57:58;;;;;;;;;;;;;;;11.58;nan;99550.13;4997107;28;19952;-87
2023/02/24 12:00:24;;;;;;;;;;;;;;;11.50;nan;99547.59;4995864;28;19988;-87
2023/02/24 12:03:19;;;;;;;;;;;;;;;11.45;nan;99547.31;4999562;28;19929;-87
2023/02/24 12:05:51;;;;;;;;;;;;;;;11.42;nan;99540.56;4995294;28;20000;-87
2023/02/24 12:08:22;;;;;;;;;;;;;;;11.38;nan;99531.34;4993669;28;19917;-87
2023/02/24 12:10:51;;;;;;;;;;;;;;;11.36;nan;99530.69;4987789;28;19918;-87
2023/02/24 12:13:19;;;;;;;;;;;;;;;11.37;nan;99524.41;4993126;28;19933;-87
2023/02/24 12:15:48;;;;;;;;;;;;;;;11.38;nan;99522.56;4999675;28;19913;-86
2023/02/24 12:34:35;;;;;;;;;;;;;;;12.74;nan;99489.31;4869936;29;21236;-85
2023/02/24 12:37:35;;;;;;;;;;;;;;;12.65;nan;99479.84;4930254;28;19976;-86
2023/02/24 12:46:39;;;;;;;;;;;;;;;;;;;;;
2023/02/24 12:55:23;;;;;;;;;;;;;;;12.23;nan;99436.44;4991169;28;19994;-86
2023/02/24 12:58:23;;;;;;;;;;;;;;;;;;;;;
2023/02/24 13:01:04;;;;;;;;;;;;;;;12.27;nan;99437.69;4963508;28;19989;-86
2023/02/24 13:04:10;;;;;;;;;;;;;;;12.39;nan;99430.84;4950771;28;19970;-86
2023/02/24 13:07:03;;;;;;;;;;;;;;;12.64;nan;99417.22;4939790;29;19918;-84
2023/02/24 13:13:31;;;;;;;;;;;;;;;;;;;;;
2023/02/24 13:16:42;;;;;;;;;;;;;;;12.64;nan;99412.72;4914609;28;19995;-85
2023/02/24 13:19:26;;;;;;;;;;;;;;;12.62;nan;99392.72;4953247;28;19922;-87
2023/02/24 13:29:01;;;;;;;;;;;;;;;12.98;nan;99381.09;4960974;28;19953;-87
2023/02/24 13:34:54;;;;;;;;;;;;;;;13.00;nan;99374.59;4940749;28;19926;-86
2023/02/24 13:44:27;;;;;;;;;;;;;;;13.18;nan;99348.34;4880726;29;19930;-86
2023/02/24 13:50:28;;;;;;;;;;;;;;;13.08;nan;99341.75;4912164;29;19925;-86
2023/02/24 14:06:06;;;;;;;;;;;;;;;13.00;nan;99341.94;4922852;29;21513;-87
2023/02/24 14:08:56;;;;;;;;;;;;;;;13.13;nan;99337.50;4866743;29;20002;-87
2023/02/24 14:27:52;;;;;;;;;;;;;;;;;;;;;
2023/02/24 14:30:41;;;;;;;;;;;;;;;12.78;nan;99301.41;4946736;28;20009;-87
2023/02/24 14:33:22;;;;;;;;;;;;;;;12.62;nan;99286.63;4946818;28;21249;-85
2023/02/24 14:42:37;;;;;;;;;;;;;;;;;;;;;
2023/02/24 14:45:36;;;;;;;;;;;;;;;12.37;nan;99281.78;5017768;28;20004;-87
2023/02/24 14:48:31;;;;;;;;;;;;;;;12.29;nan;99274.78;5000338;28;19932;-86
2023/02/24 14:54:45;;;;;;;;;;;;;;;12.09;nan;99274.66;4999571;28;19971;-86
2023/02/24 14:57:25;;;;;;;;;;;;;;;11.92;nan;99264.50;4947063;29;19918;-84
2023/02/24 15:03:04;;;;;;;;;;;;;;;11.89;nan;99261.25;4936064;28;20009;-84
2023/02/24 15:09:00;;;;;;;;;;;;;;;11.68;nan;99262.06;4940636;29;19946;-84
2023/02/24 15:11:32;;;;;;;;;;;;;;;11.69;nan;99263.69;4959795;28;19921;-85
2023/02/24 15:14:32;;;;;;;;;;;;;;;11.72;nan;99256.38;4997849;28;20032;-85
2023/02/24 15:23:32;;;;;;;;;;;;;;;11.56;nan;99245.06;5000483;28;19944;-85
2023/02/24 15:26:30;;;;;;;;;;;;;;;11.46;nan;99241.88;4997281;28;19918;-84
2023/02/24 15:29:25;;;;;;;;;;;;;;;;;;;;;
2023/02/24 15:32:02;;;;;;;;;;;;;;;11.08;nan;99238.63;4997853;28;19977;-86
2023/02/24 15:34:44;;;;;;;;;;;;;;;11.02;nan;99241.03;5001629;28;20353;-85
2023/02/24 15:37:14;;;;;;;;;;;;;;;10.91;nan;99240.69;4990495;28;19917;-85
2023/02/24 15:40:20;;;;;;;;;;;;;;;10.81;nan;99233.03;5027389;28;19926;-86
2023/02/24 15:42:57;;;;;;;;;;;;;;;10.69;nan;99223.94;4976599;28;19947;-84
2023/02/24 15:45:52;;;;;;;;;;;;;;;10.59;nan;99230.34;4998960;28;19924;-85
2023/02/24 15:48:34;;;;;;;;;;;;;;;10.46;nan;99216.94;4907443;28;20402;-85
2023/02/24 15:54:16;;;;;;;;;;;;;;;10.26;nan;99221.13;4955520;29;19938;-86
2023/02/24 15:56:56;;;;;;;;;;;;;;;10.23;nan;99216.22;4987097;28;19937;-86
2023/02/24 15:59:39;;;;;;;;;;;;;;;;;;;;;
2023/02/24 16:02:34;;;;;;;;;;;;;;;10.10;nan;99214.19;4997317;28;19981;-84
2023/02/24 16:05:22;;;;;;;;;;;;;;;10.07;nan;99215.34;4945748;28;19925;-88
2023/02/24 16:07:48;;;;;;;;;;;;;;;10.03;nan;99219.34;4950237;28;19949;-86
2023/02/24 16:10:52;;;;;;;;;;;;;;;;;;;;;
2023/02/24 16:13:40;;;;;;;;;;;;;;;9.81;nan;99202.56;4997603;28;19973;-85
2023/02/24 16:16:22;;;;;;;;;;;;;;;9.78;nan;99203.75;4983139;28;19952;-86
2023/02/24 16:19:10;;;;;;;;;;;;;;;9.70;nan;99208.28;4993422;28;19921;-86
2023/02/24 16:22:21;;;;;;;;;;;;;;;9.60;nan;99205.06;4980922;28;19932;-86
2023/02/24 16:31:00;;;;;;;;;;;;;;;;;;;;;
2023/02/24 16:34:08;;;;;;;;;;;;;;;;;;;;;
2023/02/24 16:37:02;;;;;;;;;;;;;;;9.28;nan;99204.34;4994220;28;20204;-87
2023/02/24 16:46:10;;;;;;;;;;;;;;;;;;;;;
2023/02/24 16:49:03;;;;;;;;;;;;;;;8.99;nan;99211.13;4970951;28;20757;-87
2023/02/24 16:51:39;;;;;;;;;;;;;;;8.91;nan;99206.72;4982490;28;20457;-86
2023/02/24 16:54:32;;;;;;;;;;;;;;;8.88;nan;99209.69;4995479;28;19922;-85
2023/02/24 16:57:00;;;;;;;;;;;;;;;8.79;nan;99212.53;5015556;28;20367;-86
2023/02/24 16:59:46;;;;;;;;;;;;;;;8.75;nan;99205.94;4992457;28;20037;-87
2023/02/24 17:02:20;;;;;;;;;;;;;;;8.68;nan;99205.84;4985688;28;19939;-87
2023/02/24 17:11:35;;;;;;;;;;;;;;;8.53;nan;99212.81;5008784;28;19917;-86
2023/02/24 17:14:24;;;;;;;;;;;;;;;8.47;nan;99215.13;4968773;28;19922;-87
2023/02/24 17:17:10;;;;;;;;;;;;;;;8.47;nan;99215.13;4983367;28;19917;-85
2023/02/24 17:20:05;;;;;;;;;;;;;;;8.50;nan;99220.06;4976448;28;20182;-86
2023/02/24 17:22:38;;;;;;;;;;;;;;;8.50;nan;99224.50;5011430;28;19917;-86
2023/02/24 17:25:18;;;;;;;;;;;;;;;8.55;nan;99221.38;4984469;28;19924;-85
2023/02/24 17:28:12;;;;;;;;;;;;;;;8.55;nan;99230.09;4983685;28;19917;-85
2023/02/24 17:33:46;;;;;;;;;;;;;;;8.55;nan;99227.44;4990950;28;19925;-86
2023/02/24 17:36:14;;;;;;;;;;;;;;;8.55;nan;99231.91;4987955;28;19923;-86
2023/02/24 17:38:48;;;;;;;;;;;;;;;8.50;nan;99238.50;5005649;28;19918;-85
2023/02/24 17:41:19;;;;;;;;;;;;;;;8.52;nan;99242.81;5011525;28;19944;-84
2023/02/24 17:47:08;;;;;;;;;;;;;;;8.46;nan;99245.13;5008056;28;19925;-86
2023/02/24 17:49:53;;;;;;;;;;;;;;;8.45;nan;99248.72;4987298;28;20062;-87
2023/02/24 17:52:28;;;;;;;;;;;;;;;8.43;nan;99252.53;4969488;28;19969;-87
2023/02/24 17:55:26;;;;;;;;;;;;;;;8.41;nan;99254.50;4964196;28;19917;-88
2023/02/24 17:58:30;;;;;;;;;;;;;;;8.37;nan;99256.63;5001082;28;20016;-87
2023/02/24 18:01:05;;;;;;;;;;;;;;;8.37;nan;99258.47;4894601;29;19923;-86
2023/02/24 18:03:59;;;;;;;;;;;;;;;8.31;nan;99254.66;4902508;29;19953;-86
2023/02/24 18:06:59;;;;;;;;;;;;;;;8.30;nan;99272.28;4915610;29;20033;-86
2023/02/24 18:09:45;;;;;;;;;;;;;;;8.27;nan;99272.63;4903845;29;19919;-86
2023/02/24 18:12:10;;;;;;;;;;;;;;;8.21;nan;99278.56;4939530;28;20271;-86
2023/02/24 18:14:35;;;;;;;;;;;;;;;8.16;nan;99278.25;4999025;28;19921;-86
2023/02/24 18:17:01;;;;;;;;;;;;;;;8.18;nan;99278.09;4988678;28;19918;-85
2023/02/24 18:19:26;;;;;;;;;;;;;;;8.07;nan;99280.03;4987635;28;19932;-86
2023/02/24 18:21:51;;;;;;;;;;;;;;;8.04;nan;99288.28;4995162;28;20007;-85
2023/02/24 18:24:19;;;;;;;;;;;;;;;7.97;nan;99292.56;4991784;28;20426;-85
2023/02/24 18:26:44;;;;;;;;;;;;;;;7.87;nan;99289.28;4990215;28;19917;-85
2023/02/24 18:29:10;;;;;;;;;;;;;;;7.79;nan;99295.34;4991254;28;19940;-85